createdAt,value
2023-04-28T00:00:07.704Z,10.30
2023-04-28T00:02:34.685Z,10.30
2023-04-28T00:05:01.731Z,10.40
2023-04-28T00:07:28.688Z,10.40
2023-04-28T00:09:57.041Z,10.30
2023-04-28T00:12:24.190Z,10.30
2023-04-28T00:14:51.215Z,10.40
2023-04-28T00:17:18.070Z,10.40
2023-04-28T00:19:45.266Z,10.40
2023-04-28T00:22:12.263Z,10.30
2023-04-28T00:24:39.112Z,10.40
2023-04-28T00:27:06.054Z,10.40
2023-04-28T00:29:32.939Z,10.40
2023-04-28T00:31:59.888Z,10.50
2023-04-28T00:34:26.806Z,10.50
2023-04-28T00:36:53.730Z,10.40
2023-04-28T00:39:22.921Z,10.30
2023-04-28T00:41:49.793Z,10.30
2023-04-28T00:44:16.931Z,10.40
2023-04-28T00:46:43.950Z,10.40
2023-04-28T00:49:11.155Z,10.40
2023-04-28T00:51:38.002Z,10.40
2023-04-28T00:54:06.278Z,10.40
2023-04-28T00:56:33.746Z,10.40
2023-04-28T00:59:00.728Z,10.40
2023-04-28T01:01:27.655Z,10.40
2023-04-28T01:03:54.719Z,10.40
2023-04-28T01:06:22.650Z,10.40
2023-04-28T01:08:51.016Z,10.30
2023-04-28T01:11:17.953Z,10.30
2023-04-28T01:13:44.854Z,10.30
2023-04-28T01:16:11.792Z,10.30
2023-04-28T01:18:39.392Z,10.30
2023-04-28T01:21:06.267Z,10.30
2023-04-28T01:23:33.103Z,10.40
2023-04-28T01:25:59.989Z,10.40
2023-04-28T01:28:26.919Z,10.40
2023-04-28T01:30:53.824Z,10.40
2023-04-28T01:33:20.668Z,10.40
2023-04-28T01:35:47.556Z,10.40
2023-04-28T01:38:14.406Z,10.50
2023-04-28T01:40:41.311Z,10.40
2023-04-28T01:43:08.187Z,10.40
2023-04-28T01:45:35.162Z,10.40
2023-04-28T01:48:02.063Z,10.40
2023-04-28T01:50:29.012Z,10.40
2023-04-28T01:52:55.904Z,10.50
2023-04-28T01:55:22.731Z,10.50
2023-04-28T01:57:50.180Z,10.50
2023-04-28T02:00:17.398Z,10.40
2023-04-28T02:02:44.327Z,10.50
2023-04-28T02:05:12.201Z,10.50
2023-04-28T02:07:39.083Z,10.50
2023-04-28T02:10:06.758Z,10.50
2023-04-28T02:12:34.024Z,10.50
2023-04-28T02:15:01.148Z,10.50
2023-04-28T02:17:30.712Z,10.60
2023-04-28T02:19:57.720Z,10.60
2023-04-28T02:22:24.902Z,10.60
2023-04-28T02:24:51.753Z,10.60
2023-04-28T02:27:18.712Z,10.60
2023-04-28T02:29:45.577Z,10.60
2023-04-28T02:32:12.437Z,10.60
2023-04-28T02:34:39.321Z,10.60
2023-04-28T02:37:06.223Z,10.60
2023-04-28T02:39:33.441Z,10.70
2023-04-28T02:42:00.534Z,10.60
2023-04-28T02:44:27.436Z,10.60
2023-04-28T02:46:54.389Z,10.60
2023-04-28T02:49:21.500Z,10.60
2023-04-28T02:51:48.366Z,10.60
2023-04-28T02:54:15.575Z,10.60
2023-04-28T02:56:42.850Z,10.50
2023-04-28T02:59:09.689Z,10.60
2023-04-28T03:01:36.592Z,10.60
2023-04-28T03:04:03.804Z,10.50
2023-04-28T03:06:31.802Z,10.50
2023-04-28T03:08:58.665Z,10.60
2023-04-28T03:11:25.726Z,10.60
2023-04-28T03:13:52.555Z,10.60
2023-04-28T03:16:19.459Z,10.60
2023-04-28T03:18:46.376Z,10.70
2023-04-28T03:21:13.277Z,10.70
2023-04-28T03:23:40.135Z,10.70
2023-04-28T03:26:07.151Z,10.70
2023-04-28T03:28:34.018Z,10.70
2023-04-28T03:31:01.010Z,10.70
2023-04-28T03:33:27.897Z,10.70
2023-04-28T03:35:54.888Z,10.70
2023-04-28T03:38:22.643Z,10.70
2023-04-28T03:40:49.582Z,10.70
2023-04-28T03:43:17.232Z,10.70
2023-04-28T03:45:44.128Z,10.70
2023-04-28T03:48:11.147Z,10.70
2023-04-28T03:50:38.115Z,10.80
2023-04-28T03:53:05.133Z,10.80
2023-04-28T03:55:32.023Z,10.70
2023-04-28T03:57:58.875Z,10.70
2023-04-28T04:00:25.988Z,10.70
2023-04-28T04:02:53.260Z,10.60
2023-04-28T04:05:20.406Z,10.60
2023-04-28T04:07:47.533Z,10.50
2023-04-28T04:10:14.430Z,10.50
2023-04-28T04:12:41.331Z,10.50
2023-04-28T04:15:08.915Z,10.40
2023-04-28T04:17:35.822Z,10.40
2023-04-28T04:20:02.694Z,10.40
2023-04-28T04:22:29.674Z,10.40
2023-04-28T04:24:56.688Z,10.40
2023-04-28T04:27:23.592Z,10.40
2023-04-28T04:29:50.587Z,10.40
2023-04-28T04:32:17.483Z,10.40
2023-04-28T04:34:44.992Z,10.40
2023-04-28T04:37:11.862Z,10.40
2023-04-28T04:39:38.724Z,10.40
2023-04-28T04:42:22.632Z,10.40
2023-04-28T04:44:50.618Z,10.40
2023-04-28T04:47:17.538Z,10.40
2023-04-28T04:49:44.454Z,10.40
2023-04-28T04:52:11.344Z,10.50
2023-04-28T04:54:38.276Z,10.50
2023-04-28T04:57:07.098Z,10.50
2023-04-28T04:59:33.936Z,10.50
2023-04-28T05:02:00.951Z,10.50
2023-04-28T05:04:28.387Z,10.50
2023-04-28T05:06:55.576Z,10.50
2023-04-28T05:09:23.417Z,10.50
2023-04-28T05:11:50.510Z,10.50
2023-04-28T05:14:18.012Z,10.50
2023-04-28T05:16:45.242Z,10.60
2023-04-28T05:19:12.123Z,10.60
2023-04-28T05:21:38.962Z,10.60
2023-04-28T05:24:06.293Z,10.60
2023-04-28T05:26:33.099Z,10.70
2023-04-28T05:29:00.021Z,10.70
2023-04-28T05:31:26.923Z,10.70
2023-04-28T05:33:53.835Z,10.80
2023-04-28T05:36:21.079Z,10.90
2023-04-28T05:38:47.985Z,10.90
2023-04-28T05:41:14.870Z,11.00
2023-04-28T05:43:41.727Z,11.00
2023-04-28T05:46:18.240Z,11.10
2023-04-28T05:48:49.154Z,11.10
2023-04-28T05:51:16.012Z,11.20
2023-04-28T05:53:44.083Z,11.20
2023-04-28T05:56:10.969Z,11.20
2023-04-28T05:58:38.568Z,11.30
2023-04-28T06:01:06.525Z,11.30
2023-04-28T06:03:33.754Z,11.30
2023-04-28T06:06:00.921Z,11.40
2023-04-28T06:08:27.811Z,11.50
2023-04-28T06:10:54.720Z,11.50
2023-04-28T06:13:21.795Z,11.60
2023-04-28T06:15:48.648Z,11.60
2023-04-28T06:18:16.503Z,11.80
2023-04-28T06:20:43.346Z,12.00
2023-04-28T06:23:11.231Z,12.20
2023-04-28T06:25:38.338Z,12.40
2023-04-28T06:28:06.457Z,12.60
2023-04-28T06:30:33.404Z,12.60
2023-04-28T06:33:00.503Z,12.70
2023-04-28T06:35:28.106Z,12.80
2023-04-28T06:37:54.948Z,12.80
2023-04-28T06:40:21.941Z,12.80
2023-04-28T06:42:49.021Z,12.80
2023-04-28T06:45:16.069Z,12.80
2023-04-28T06:47:43.417Z,12.80
2023-04-28T06:50:11.109Z,12.70
2023-04-28T06:52:41.112Z,12.70
2023-04-28T06:55:09.655Z,12.60
2023-04-28T06:57:37.881Z,12.50
2023-04-28T07:00:05.375Z,12.50
2023-04-28T07:02:32.535Z,12.40
2023-04-28T07:04:59.516Z,12.40
2023-04-28T07:07:27.405Z,12.30
2023-04-28T07:09:54.365Z,12.30
2023-04-28T07:12:21.894Z,12.30
2023-04-28T07:14:49.042Z,12.20
2023-04-28T07:17:16.194Z,12.10
2023-04-28T07:19:43.126Z,12.10
2023-04-28T07:22:10.031Z,12.20
2023-04-28T07:24:37.497Z,12.20
2023-04-28T07:27:04.487Z,12.20
2023-04-28T07:29:34.267Z,12.20
2023-04-28T07:32:06.863Z,12.20
2023-04-28T07:34:35.920Z,12.30
2023-04-28T07:37:03.607Z,12.20
2023-04-28T07:39:36.837Z,12.30
2023-04-28T07:42:03.986Z,12.30
2023-04-28T07:44:32.768Z,12.30
2023-04-28T07:47:00.208Z,12.40
2023-04-28T07:49:30.252Z,12.50
2023-04-28T07:51:57.332Z,12.50
2023-04-28T07:54:24.673Z,12.60
2023-04-28T07:56:51.738Z,12.70
2023-04-28T07:59:19.865Z,12.70
2023-04-28T08:01:46.810Z,12.80
2023-04-28T08:04:14.109Z,12.90
2023-04-28T08:06:41.717Z,12.90
2023-04-28T08:09:08.763Z,13.00
2023-04-28T08:11:35.682Z,12.90
2023-04-28T08:14:03.512Z,12.90
2023-04-28T08:16:31.015Z,12.90
2023-04-28T08:18:58.341Z,13.00
2023-04-28T08:21:25.651Z,13.10
2023-04-28T08:23:52.494Z,13.10
2023-04-28T08:26:19.388Z,13.10
2023-04-28T08:28:46.260Z,13.10
2023-04-28T08:31:14.184Z,13.00
2023-04-28T08:33:44.528Z,12.90
2023-04-28T08:36:15.143Z,12.90
2023-04-28T08:38:42.228Z,12.90
2023-04-28T08:41:09.216Z,13.00
2023-04-28T08:43:36.581Z,13.10
2023-04-28T08:46:06.537Z,13.20
2023-04-28T08:48:40.285Z,13.20
2023-04-28T08:51:07.428Z,13.20
2023-04-28T08:53:57.268Z,13.20
2023-04-28T08:56:25.146Z,13.30
2023-04-28T08:58:52.290Z,13.30
2023-04-28T09:01:19.234Z,13.40
2023-04-28T09:03:49.273Z,13.40
2023-04-28T09:06:16.419Z,13.50
2023-04-28T09:08:43.272Z,13.50
2023-04-28T09:11:11.270Z,13.50
2023-04-28T09:13:40.170Z,13.50
2023-04-28T09:16:07.406Z,13.50
2023-04-28T09:18:34.429Z,13.60
2023-04-28T09:21:05.514Z,13.60
2023-04-28T09:23:33.654Z,13.60
2023-04-28T09:26:04.660Z,13.70
2023-04-28T09:28:35.160Z,13.80
2023-04-28T09:31:03.949Z,13.80
2023-04-28T09:33:30.927Z,13.90
2023-04-28T09:35:57.836Z,14.00
2023-04-28T09:38:25.326Z,14.10
2023-04-28T09:40:59.741Z,14.10
2023-04-28T09:43:36.298Z,14.20
2023-04-28T09:46:04.498Z,14.10
2023-04-28T09:48:38.154Z,14.20
2023-04-28T09:51:07.820Z,14.30
2023-04-28T09:53:34.781Z,14.40
2023-04-28T09:56:03.532Z,14.50
2023-04-28T09:58:32.280Z,14.50
2023-04-28T10:01:00.676Z,14.50
2023-04-28T10:03:29.807Z,14.60
2023-04-28T10:05:58.458Z,14.30
2023-04-28T10:08:27.194Z,14.20
2023-04-28T10:10:54.869Z,14.20
2023-04-28T10:13:22.849Z,14.30
2023-04-28T10:15:55.693Z,14.30
2023-04-28T10:18:24.515Z,14.30
2023-04-28T10:20:58.251Z,14.40
2023-04-28T10:23:50.238Z,14.50
2023-04-28T10:26:19.873Z,14.60
2023-04-28T10:28:48.410Z,14.70
2023-04-28T10:31:16.652Z,14.60
2023-04-28T10:33:43.940Z,14.70
2023-04-28T10:36:11.137Z,14.70
2023-04-28T10:39:16.928Z,14.80
2023-04-28T10:41:44.969Z,15.00
2023-04-28T10:44:30.589Z,15.20
2023-04-28T10:47:10.092Z,14.90
2023-04-28T10:50:04.194Z,15.00
2023-04-28T10:52:40.872Z,14.90
2023-04-28T10:55:37.570Z,14.90
2023-04-28T10:58:16.585Z,14.90
2023-04-28T11:00:53.604Z,14.90
2023-04-28T11:03:54.212Z,14.90
2023-04-28T11:06:35.728Z,15.00
2023-04-28T11:09:04.290Z,15.10
2023-04-28T11:11:32.786Z,15.30
2023-04-28T11:14:22.679Z,15.50
2023-04-28T11:16:59.695Z,15.60
2023-04-28T11:19:30.982Z,15.60
2023-04-28T11:21:59.193Z,15.60
2023-04-28T11:24:27.352Z,15.60
2023-04-28T11:26:54.312Z,15.60
2023-04-28T11:29:43.524Z,15.60
2023-04-28T11:32:10.916Z,15.60
2023-04-28T11:34:38.053Z,15.70
2023-04-28T11:37:07.245Z,15.80
2023-04-28T11:39:34.428Z,16.00
2023-04-28T11:42:10.136Z,16.10
2023-04-28T11:44:37.060Z,16.20
2023-04-28T11:47:04.658Z,16.20
2023-04-28T11:49:47.726Z,16.10
2023-04-28T11:52:14.657Z,15.90
2023-04-28T11:54:44.285Z,15.90
2023-04-28T11:57:21.618Z,15.90
2023-04-28T11:59:49.715Z,15.90
2023-04-28T12:02:19.179Z,16.10
2023-04-28T12:04:46.145Z,16.10
2023-04-28T12:07:19.854Z,16.10
2023-04-28T12:10:10.572Z,15.90
2023-04-28T12:15:08.852Z,15.80
2023-04-28T12:17:39.786Z,15.90
2023-04-28T12:20:08.617Z,15.80
2023-04-28T12:22:53.678Z,15.70
2023-04-28T12:25:21.692Z,15.60
2023-04-28T12:28:08.488Z,15.70
2023-04-28T12:30:42.152Z,15.70
2023-04-28T12:33:25.352Z,15.70
2023-04-28T12:35:55.186Z,15.80
2023-04-28T12:38:25.855Z,15.70
2023-04-28T12:40:53.932Z,15.80
2023-04-28T12:43:23.271Z,15.90
2023-04-28T12:45:51.077Z,15.80
2023-04-28T12:48:18.072Z,15.80
2023-04-28T12:50:45.833Z,15.90
2023-04-28T12:53:12.887Z,15.90
2023-04-28T12:55:40.867Z,15.90
2023-04-28T12:58:09.824Z,16.10
2023-04-28T13:00:37.699Z,16.10
2023-04-28T13:03:04.688Z,16.20
2023-04-28T13:05:32.669Z,16.30
2023-04-28T13:07:59.728Z,16.40
2023-04-28T13:10:26.763Z,16.70
2023-04-28T13:12:53.585Z,16.80
2023-04-28T13:15:20.679Z,17.10
2023-04-28T13:17:49.209Z,17.10
2023-04-28T13:20:18.175Z,17.20
2023-04-28T13:22:45.289Z,17.50
2023-04-28T13:25:12.126Z,17.60
2023-04-28T13:27:43.307Z,17.50
2023-04-28T13:30:11.457Z,17.50
2023-04-28T13:32:38.323Z,17.70
2023-04-28T13:35:05.711Z,18.10
2023-04-28T13:37:33.185Z,18.10
2023-04-28T13:40:04.349Z,18.10
2023-04-28T13:42:31.420Z,17.70
2023-04-28T13:44:59.558Z,17.50
2023-04-28T13:47:26.804Z,17.30
2023-04-28T13:49:53.744Z,17.20
2023-04-28T13:52:22.565Z,17.20
2023-04-28T13:54:49.802Z,17.30
2023-04-28T13:57:25.348Z,17.40
2023-04-28T13:59:52.213Z,17.10
2023-04-28T14:02:20.415Z,16.90
2023-04-28T14:04:49.352Z,17.00
2023-04-28T14:07:40.801Z,17.00
2023-04-28T14:10:58.277Z,17.10
2023-04-28T14:14:16.760Z,17.10
2023-04-28T14:16:48.769Z,17.20
2023-04-28T14:19:18.703Z,17.20
2023-04-28T14:21:50.378Z,17.10
2023-04-28T14:25:37.716Z,16.90
2023-04-28T14:28:11.281Z,16.80
2023-04-28T14:32:23.142Z,16.40
2023-04-28T14:34:51.917Z,16.30
2023-04-28T14:37:18.814Z,16.10
2023-04-28T14:41:01.331Z,16.00
2023-04-28T14:45:05.492Z,16.20
2023-04-28T14:47:39.623Z,16.00
2023-04-28T14:53:34.271Z,16.00
2023-04-28T14:56:27.084Z,15.60
2023-04-28T15:00:54.240Z,15.30
2023-04-28T15:03:22.285Z,15.30
2023-04-28T15:08:25.318Z,15.30
2023-04-28T15:10:58.313Z,15.20
2023-04-28T15:16:00.496Z,15.10
2023-04-28T15:18:51.716Z,14.90
2023-04-28T15:21:34.716Z,14.80
2023-04-28T15:24:33.294Z,14.60
2023-04-28T15:27:01.238Z,14.70
2023-04-28T15:29:28.486Z,14.70
2023-04-28T15:31:57.898Z,14.60
2023-04-28T15:34:25.083Z,14.60
2023-04-28T15:36:53.907Z,14.60
2023-04-28T15:39:21.888Z,14.60
2023-04-28T15:41:48.765Z,14.60
2023-04-28T15:45:38.885Z,14.60
2023-04-28T15:48:20.308Z,14.60
2023-04-28T15:54:11.651Z,14.50
2023-04-28T15:58:39.598Z,14.50
2023-04-28T16:01:43.167Z,14.40
2023-04-28T16:04:34.408Z,14.40
2023-04-28T16:08:24.114Z,14.40
2023-04-28T16:14:42.393Z,14.40
2023-04-28T16:21:01.352Z,14.50
2023-04-28T16:26:44.628Z,14.30
2023-04-28T16:32:36.696Z,14.30
2023-04-28T16:35:16.123Z,14.30
2023-04-28T16:39:03.134Z,14.20
2023-04-28T16:43:57.241Z,14.20
2023-04-28T16:46:39.683Z,14.10
2023-04-28T16:49:06.819Z,14.00
2023-04-28T16:51:54.570Z,13.90
2023-04-28T16:54:30.462Z,13.70
2023-04-28T16:56:57.822Z,13.60
2023-04-28T16:59:28.970Z,13.60
2023-04-28T17:02:00.729Z,13.60
2023-04-28T17:05:37.712Z,13.40
2023-04-28T17:08:30.286Z,13.40
2023-04-28T17:11:29.533Z,13.30
2023-04-28T17:14:38.892Z,13.30
2023-04-28T17:17:06.008Z,13.20
2023-04-28T17:21:06.207Z,13.20
2023-04-28T17:23:44.073Z,13.20
2023-04-28T17:26:11.800Z,13.10
2023-04-28T17:31:08.706Z,13.10
2023-04-28T17:33:42.471Z,13.10
2023-04-28T17:36:19.108Z,13.10
2023-04-28T17:40:56.434Z,13.00
2023-04-28T17:43:27.273Z,13.10
2023-04-28T17:46:15.975Z,13.10
2023-04-28T17:48:43.288Z,13.10
2023-04-28T17:51:10.192Z,13.10
2023-04-28T17:53:41.182Z,13.10
2023-04-28T17:56:46.938Z,13.10
2023-04-28T17:59:42.624Z,13.10
2023-04-28T18:04:10.074Z,13.10
2023-04-28T18:08:26.420Z,13.20
2023-04-28T18:10:54.408Z,13.10
2023-04-28T18:13:21.349Z,13.10
2023-04-28T18:15:48.304Z,13.10
2023-04-28T18:18:15.201Z,13.10
2023-04-28T18:20:42.932Z,13.10
2023-04-28T18:23:12.308Z,13.10
2023-04-28T18:25:49.042Z,13.10
2023-04-28T18:28:15.914Z,13.10
2023-04-28T18:30:42.773Z,13.00
2023-04-28T18:33:09.767Z,13.00
2023-04-28T18:35:37.067Z,13.00
2023-04-28T18:38:05.151Z,12.90
2023-04-28T18:40:37.720Z,12.90
2023-04-28T18:43:07.191Z,12.80
2023-04-28T18:45:35.778Z,12.80
2023-04-28T18:48:03.205Z,12.80
2023-04-28T18:50:30.720Z,12.70
2023-04-28T18:52:59.535Z,12.80
2023-04-28T18:55:27.486Z,12.70
2023-04-28T18:57:56.459Z,12.70
2023-04-28T19:00:49.845Z,12.70
2023-04-28T19:04:57.158Z,12.60
2023-04-28T19:07:54.688Z,12.60
2023-04-28T19:12:20.660Z,12.60
2023-04-28T19:16:05.448Z,12.50
2023-04-28T19:18:42.196Z,12.50
2023-04-28T19:21:12.154Z,12.50
2023-04-28T19:25:15.226Z,12.50
2023-04-28T19:29:20.757Z,12.50
2023-04-28T19:32:37.768Z,12.40
2023-04-28T19:35:04.958Z,12.40
2023-04-28T19:37:32.388Z,12.40
2023-04-28T19:40:00.127Z,12.40
2023-04-28T19:43:17.567Z,12.40
2023-04-28T19:45:45.084Z,12.30
2023-04-28T19:50:34.299Z,12.40
2023-04-28T19:53:01.132Z,12.40
2023-04-28T19:55:43.101Z,12.30
2023-04-28T19:58:10.624Z,12.30
2023-04-28T20:03:56.952Z,12.30
2023-04-28T20:06:33.626Z,12.30
2023-04-28T20:09:01.443Z,12.30
2023-04-28T20:11:29.740Z,12.30
2023-04-28T20:16:28.659Z,12.30
2023-04-28T20:20:53.177Z,12.30
2023-04-28T20:25:09.963Z,12.30
2023-04-28T20:28:30.424Z,12.20
2023-04-28T20:31:12.811Z,12.20
2023-04-28T20:35:00.784Z,12.20
2023-04-28T20:39:04.847Z,12.10
2023-04-28T20:41:54.744Z,12.00
2023-04-28T20:45:01.340Z,11.90
2023-04-28T20:48:55.726Z,11.90
2023-04-28T20:51:22.659Z,11.90
2023-04-28T20:53:49.507Z,11.90
2023-04-28T20:57:13.208Z,11.90
2023-04-28T21:00:11.401Z,11.90
2023-04-28T21:06:56.092Z,11.90
2023-04-28T21:09:42.102Z,11.90
2023-04-28T21:13:09.890Z,11.90
2023-04-28T21:15:44.495Z,11.90
2023-04-28T21:20:35.072Z,11.90
2023-04-28T21:24:10.193Z,11.80
2023-04-28T21:27:53.816Z,11.50
2023-04-28T21:30:22.032Z,11.30
2023-04-28T21:32:48.941Z,11.20
2023-04-28T21:35:16.402Z,11.10
2023-04-28T21:37:43.301Z,11.10
2023-04-28T21:40:10.496Z,11.00
2023-04-28T21:42:38.060Z,10.90
2023-04-28T21:45:28.812Z,10.90
2023-04-28T21:47:57.127Z,10.90
2023-04-28T21:50:24.067Z,10.90
2023-04-28T21:52:50.977Z,10.90
2023-04-28T21:55:17.988Z,10.90
2023-04-28T21:57:45.840Z,10.90
2023-04-28T22:00:13.103Z,10.80
2023-04-28T22:02:40.097Z,10.70
2023-04-28T22:05:07.281Z,10.70
2023-04-28T22:07:34.228Z,10.80
2023-04-28T22:10:01.231Z,10.70
2023-04-28T22:12:28.390Z,10.70
2023-04-28T22:14:55.290Z,10.70
2023-04-28T22:17:22.373Z,10.70
2023-04-28T22:20:15.950Z,10.70
2023-04-28T22:22:43.149Z,10.70
2023-04-28T22:25:10.357Z,10.70
2023-04-28T22:27:37.518Z,10.60
2023-04-28T22:30:04.853Z,10.70
2023-04-28T22:34:31.233Z,10.70
2023-04-28T22:36:58.147Z,10.70
2023-04-28T22:39:27.003Z,10.60
2023-04-28T22:41:54.016Z,10.50
2023-04-28T22:44:40.179Z,10.50
2023-04-28T22:47:07.024Z,10.50
2023-04-28T22:49:34.016Z,10.60
2023-04-28T22:52:00.994Z,10.60
2023-04-28T22:54:27.965Z,10.50
2023-04-28T22:56:55.814Z,10.50
2023-04-28T22:59:22.680Z,10.50
2023-04-28T23:01:49.954Z,10.50
2023-04-28T23:04:17.832Z,10.40
2023-04-28T23:06:44.934Z,10.50
2023-04-28T23:09:11.860Z,10.50
2023-04-28T23:11:38.889Z,10.40
2023-04-28T23:14:05.793Z,10.50
2023-04-28T23:16:32.803Z,10.50
2023-04-28T23:18:59.861Z,10.40
2023-04-28T23:21:29.774Z,10.40
2023-04-28T23:23:56.644Z,10.50
2023-04-28T23:26:24.784Z,10.40
2023-04-28T23:28:52.153Z,10.40
2023-04-28T23:31:19.037Z,10.40
2023-04-28T23:33:45.908Z,10.40
2023-04-28T23:36:13.937Z,10.30
2023-04-28T23:38:40.843Z,10.40
2023-04-28T23:41:09.104Z,10.30
2023-04-28T23:43:36.393Z,10.30
2023-04-28T23:46:03.336Z,10.40
2023-04-28T23:48:30.224Z,10.30
2023-04-28T23:50:57.152Z,10.30
2023-04-28T23:53:24.376Z,10.30
2023-04-28T23:55:52.237Z,10.20
2023-04-28T23:58:19.116Z,10.20
